Time;durP1;ratioP1;P1;durP2;ratioP2;P2;SDS_P1;SDS_P2;PMS_P1;PMS_P2;Temp;Humidity;BMP_temperature;BMP_pressure;BME280_temperature;BME280_humidity;BME280_pressure;Samples;Min_cycle;Max_cycle;Signal;HPM_P1;HPM_P2
2023/07/27 00:00:13;;;;;;;14.68;7.43;;;13.20;99.90;;;;;;4993731;28;20530;-71
2023/07/27 00:02:39;;;;;;;15.30;7.88;;;13.20;99.90;;;;;;4989336;28;174245;-71
2023/07/27 00:05:05;;;;;;;14.93;7.63;;;13.30;99.90;;;;;;4983538;28;20054;-70
2023/07/27 00:07:31;;;;;;;13.85;7.00;;;13.30;99.90;;;;;;4971573;28;186039;-72
2023/07/27 00:09:58;;;;;;;14.65;6.70;;;13.30;99.90;;;;;;4990896;28;20440;-71
2023/07/27 00:12:24;;;;;;;14.98;7.22;;;13.40;99.90;;;;;;4974721;28;128370;-71
2023/07/27 00:14:50;;;;;;;14.20;7.18;;;13.30;99.90;;;;;;4964831;28;20424;-71
2023/07/27 00:17:17;;;;;;;14.55;7.00;;;13.40;99.90;;;;;;4972588;28;23115;-71
2023/07/27 00:19:43;;;;;;;13.77;6.75;;;13.40;99.90;;;;;;4995713;28;20050;-71
2023/07/27 00:22:09;;;;;;;14.30;6.63;;;13.40;99.90;;;;;;4949718;28;260943;-71
2023/07/27 00:24:35;;;;;;;12.75;6.45;;;13.40;99.90;;;;;;4982038;28;20058;-70
2023/07/27 00:27:01;;;;;;;13.15;6.90;;;13.40;99.90;;;;;;4962944;28;276020;-70
2023/07/27 00:29:27;;;;;;;15.43;7.28;;;13.40;99.90;;;;;;4980995;28;20054;-70
2023/07/27 00:31:53;;;;;;;13.55;7.00;;;13.40;99.90;;;;;;4963159;28;262522;-71
2023/07/27 00:34:19;;;;;;;13.88;7.30;;;13.40;99.90;;;;;;4982952;28;20050;-71
2023/07/27 00:36:45;;;;;;;14.88;6.93;;;13.40;99.90;;;;;;4982652;28;20507;-70
2023/07/27 00:39:12;;;;;;;12.13;6.45;;;13.40;99.90;;;;;;4956476;28;31486;-70
2023/07/27 00:41:42;;;;;;;12.88;6.70;;;13.40;99.90;;;;;;4979644;28;20784;-71
2023/07/27 00:44:09;;;;;;;14.85;6.70;;;13.40;99.90;;;;;;4968317;28;92370;-70
2023/07/27 00:46:37;;;;;;;13.38;6.82;;;13.40;99.90;;;;;;4976112;28;20050;-71
2023/07/27 00:49:04;;;;;;;13.02;6.82;;;13.40;99.90;;;;;;4965956;28;142140;-71
2023/07/27 00:51:34;;;;;;;13.15;7.03;;;13.40;99.90;;;;;;4980120;28;20066;-71
2023/07/27 00:54:05;;;;;;;14.43;7.20;;;13.50;99.90;;;;;;4958137;28;151323;-71
2023/07/27 00:56:32;;;;;;;14.00;7.27;;;13.40;99.90;;;;;;4982420;28;20057;-71
2023/07/27 00:59:03;;;;;;;13.05;6.55;;;13.40;99.90;;;;;;4965466;28;243454;-71
2023/07/27 01:01:29;;;;;;;13.57;6.07;;;13.40;99.90;;;;;;4979466;28;20065;-71
2023/07/27 01:03:56;;;;;;;14.02;6.85;;;13.40;99.90;;;;;;4977137;28;276941;-71
2023/07/27 01:06:23;;;;;;;14.18;6.68;;;13.50;99.90;;;;;;4984037;28;20834;-71
2023/07/27 01:08:50;;;;;;;14.32;6.63;;;13.50;99.90;;;;;;4965610;28;120616;-71
2023/07/27 01:11:22;;;;;;;12.35;6.57;;;13.50;99.90;;;;;;4982276;28;20053;-71
2023/07/27 01:13:57;;;;;;;13.45;6.10;;;13.50;99.90;;;;;;4979073;28;275823;-71
2023/07/27 01:16:39;;;;;;;12.52;5.82;;;13.50;99.90;;;;;;4978423;28;20055;-71
2023/07/27 01:19:25;;;;;;;12.63;6.80;;;13.50;99.90;;;;;;4975950;28;264850;-71
2023/07/27 01:22:06;;;;;;;12.32;6.47;;;13.50;99.90;;;;;;4963223;28;253036;-71
2023/07/27 01:24:47;;;;;;;12.40;6.03;;;13.50;99.90;;;;;;4995189;28;20054;-71
2023/07/27 01:27:34;;;;;;;14.02;6.38;;;13.60;99.90;;;;;;4966924;28;271392;-71
2023/07/27 01:30:26;;;;;;;14.43;6.90;;;13.60;99.90;;;;;;4979275;28;20108;-71
2023/07/27 01:32:59;;;;;;;12.05;6.03;;;13.60;99.90;;;;;;4972609;28;257612;-71
2023/07/27 01:35:32;;;;;;;12.70;6.35;;;13.60;99.90;;;;;;4979041;28;20054;-71
2023/07/27 01:38:01;;;;;;;12.32;5.75;;;13.60;99.90;;;;;;4961153;28;242300;-71
2023/07/27 01:40:28;;;;;;;12.18;6.38;;;13.60;99.90;;;;;;4977471;28;20066;-71
2023/07/27 01:42:55;;;;;;;14.20;7.15;;;13.60;99.90;;;;;;4968853;28;259778;-69
2023/07/27 01:45:23;;;;;;;12.98;7.22;;;13.60;99.90;;;;;;4993083;28;20046;-70
2023/07/27 01:47:51;;;;;;;12.82;6.35;;;13.60;99.90;;;;;;4967783;28;267220;-70
2023/07/27 01:50:17;;;;;;;14.43;6.65;;;13.60;99.90;;;;;;4979432;28;20959;-70
2023/07/27 01:52:46;;;;;;;12.63;6.68;;;13.70;99.90;;;;;;4944055;28;230426;-70
2023/07/27 01:55:15;;;;;;;11.98;6.03;;;13.70;99.90;;;;;;4977036;28;20047;-69
2023/07/27 01:57:43;;;;;;;13.65;6.43;;;13.70;99.90;;;;;;4967075;28;190283;-70
2023/07/27 02:00:11;;;;;;;11.95;6.25;;;13.70;99.90;;;;;;4978155;28;20065;-70
2023/07/27 02:02:38;;;;;;;15.00;6.00;;;13.70;99.90;;;;;;4956119;28;58413;-70
2023/07/27 02:05:04;;;;;;;12.45;6.53;;;13.70;99.90;;;;;;4978144;28;20058;-70
2023/07/27 02:07:34;;;;;;;12.70;6.68;;;13.70;99.90;;;;;;4967707;28;262739;-70
2023/07/27 02:10:00;;;;;;;15.25;6.65;;;13.70;99.90;;;;;;4986266;28;20046;-70
2023/07/27 02:12:34;;;;;;;14.18;6.72;;;13.70;99.90;;;;;;4968662;28;114465;-69
2023/07/27 02:15:10;;;;;;;11.77;6.10;;;13.70;99.90;;;;;;4981410;28;20047;-70
2023/07/27 02:17:49;;;;;;;12.48;6.00;;;13.80;99.90;;;;;;4970306;28;151737;-70
2023/07/27 02:20:19;;;;;;;11.80;6.03;;;13.80;99.90;;;;;;4991231;28;20058;-70
2023/07/27 02:22:47;;;;;;;11.90;6.00;;;13.80;99.90;;;;;;4962575;28;276609;-70
2023/07/27 02:25:13;;;;;;;11.25;5.70;;;13.80;99.90;;;;;;4982889;28;20054;-69
2023/07/27 02:27:39;;;;;;;11.63;5.78;;;13.80;99.90;;;;;;4962146;28;253961;-70
2023/07/27 02:30:06;;;;;;;12.82;6.00;;;13.80;99.90;;;;;;4971560;28;20077;-70
2023/07/27 02:32:32;;;;;;;13.98;6.18;;;13.80;99.90;;;;;;4959781;28;262119;-70
2023/07/27 02:34:58;;;;;;;13.57;6.00;;;13.90;99.90;;;;;;4973278;28;20046;-71
2023/07/27 02:37:24;;;;;;;12.73;6.13;;;13.90;99.90;;;;;;4959131;28;161628;-70
2023/07/27 02:39:50;;;;;;;12.25;6.25;;;13.90;99.90;;;;;;4982570;28;20061;-70
2023/07/27 02:42:16;;;;;;;12.23;5.93;;;13.90;99.90;;;;;;4962020;28;106760;-70
2023/07/27 02:44:42;;;;;;;11.90;6.30;;;13.90;99.90;;;;;;4972975;28;20061;-70
2023/07/27 02:47:09;;;;;;;11.93;5.88;;;13.90;99.90;;;;;;4959610;28;257136;-71
2023/07/27 02:49:35;;;;;;;13.43;6.13;;;14.00;99.90;;;;;;4971334;28;20063;-70
2023/07/27 02:52:01;;;;;;;11.32;5.93;;;14.00;99.90;;;;;;4942112;28;270814;-70
2023/07/27 02:54:27;;;;;;;12.73;6.38;;;14.00;99.90;;;;;;4983542;28;20050;-70
2023/07/27 02:56:53;;;;;;;12.00;5.70;;;14.00;99.90;;;;;;4955182;28;274680;-70
2023/07/27 02:59:19;;;;;;;11.73;5.63;;;14.00;99.90;;;;;;4980681;28;20050;-70
2023/07/27 03:01:45;;;;;;;12.05;6.05;;;14.00;99.90;;;;;;4981376;28;20142;-70
2023/07/27 03:04:11;;;;;;;12.07;5.82;;;14.00;99.90;;;;;;4975762;28;263829;-70
2023/07/27 03:06:39;;;;;;;13.55;5.90;;;14.00;99.90;;;;;;4976767;28;20578;-71
2023/07/27 03:09:05;;;;;;;11.07;5.75;;;14.00;99.90;;;;;;4972233;28;283650;-70
2023/07/27 03:11:31;;;;;;;11.45;6.38;;;14.00;99.90;;;;;;4973717;28;20488;-71
2023/07/27 03:14:00;;;;;;;12.07;5.50;;;13.90;99.90;;;;;;4972750;28;292796;-71
2023/07/27 03:16:26;;;;;;;12.63;5.60;;;13.90;99.90;;;;;;4981048;28;20536;-71
2023/07/27 03:18:52;;;;;;;12.77;6.15;;;14.00;99.90;;;;;;4969695;28;20054;-70
2023/07/27 03:21:18;;;;;;;11.55;6.05;;;13.90;99.90;;;;;;4979869;28;20050;-71
2023/07/27 03:23:44;;;;;;;13.32;6.18;;;14.00;99.90;;;;;;4971924;28;271140;-69
2023/07/27 03:26:11;;;;;;;13.27;6.03;;;14.00;99.90;;;;;;4962231;28;20399;-69
2023/07/27 03:28:38;;;;;;;12.75;6.05;;;14.00;99.90;;;;;;4972382;28;292441;-69
2023/07/27 03:31:34;;;;;;;12.55;6.25;;;14.00;99.90;;;;;;4976722;28;20082;-70
2023/07/27 03:34:00;;;;;;;12.63;6.40;;;14.00;99.90;;;;;;4968114;28;245001;-70
2023/07/27 03:36:26;;;;;;;14.77;6.35;;;13.90;99.90;;;;;;4976937;28;20798;-70
2023/07/27 03:38:52;;;;;;;13.90;6.60;;;14.00;99.90;;;;;;4975722;28;265620;-70
2023/07/27 03:41:18;;;;;;;14.73;6.93;;;13.90;99.90;;;;;;4980180;28;20054;-70
2023/07/27 03:43:44;;;;;;;14.63;6.60;;;13.90;99.90;;;;;;4964203;28;227834;-70
2023/07/27 03:46:10;;;;;;;13.55;7.35;;;13.90;99.90;;;;;;4975637;28;20050;-73
2023/07/27 03:48:36;;;;;;;14.45;7.07;;;13.90;99.90;;;;;;4973948;28;262350;-70
2023/07/27 03:51:03;;;;;;;13.60;7.22;;;13.90;99.90;;;;;;4983841;28;20085;-70
2023/07/27 03:53:30;;;;;;;15.00;7.25;;;13.80;99.90;;;;;;4952738;28;176671;-70
2023/07/27 03:55:56;;;;;;;12.57;6.88;;;13.80;99.90;;;;;;4981579;28;20054;-70
2023/07/27 03:58:23;;;;;;;14.85;7.53;;;13.80;99.90;;;;;;4972615;28;267991;-70
2023/07/27 04:00:49;;;;;;;14.80;8.02;;;13.80;99.90;;;;;;4979884;28;20400;-70
2023/07/27 04:03:15;;;;;;;14.05;8.05;;;13.70;99.90;;;;;;4972266;28;267432;-71
2023/07/27 04:05:41;;;;;;;14.77;7.82;;;13.70;99.90;;;;;;4981648;28;20118;-70
2023/07/27 04:08:07;;;;;;;15.20;8.18;;;13.70;99.90;;;;;;4967490;28;256340;-70
2023/07/27 04:10:33;;;;;;;13.00;7.68;;;13.70;99.90;;;;;;4975418;28;20504;-71
2023/07/27 04:12:59;;;;;;;14.45;8.05;;;13.70;99.90;;;;;;4970646;28;140698;-71
2023/07/27 04:15:25;;;;;;;15.43;8.80;;;13.70;99.90;;;;;;4945977;28;20392;-71
2023/07/27 04:17:51;;;;;;;18.20;8.93;;;13.60;99.90;;;;;;4965583;28;20046;-71
2023/07/27 04:20:17;;;;;;;16.80;8.13;;;13.60;99.90;;;;;;4985601;28;20065;-70
2023/07/27 04:22:44;;;;;;;15.88;8.25;;;13.60;99.90;;;;;;4965609;28;266140;-71
2023/07/27 04:25:10;;;;;;;16.42;8.65;;;13.60;99.90;;;;;;4976886;28;20050;-71
2023/07/27 04:27:36;;;;;;;16.27;8.40;;;13.60;99.90;;;;;;4968504;28;263117;-70
2023/07/27 04:30:02;;;;;;;15.20;8.35;;;13.60;99.90;;;;;;4976848;28;20062;-71
2023/07/27 04:32:28;;;;;;;16.52;8.95;;;13.60;99.90;;;;;;4964876;28;266276;-72
2023/07/27 04:34:54;;;;;;;16.25;9.05;;;13.60;99.90;;;;;;4977462;28;20046;-71
2023/07/27 04:37:23;;;;;;;16.33;8.80;;;13.60;99.90;;;;;;4965825;28;270468;-72
2023/07/27 04:39:49;;;;;;;19.08;9.20;;;13.60;99.90;;;;;;4982857;28;20058;-72
2023/07/27 04:42:15;;;;;;;17.20;9.05;;;13.60;99.90;;;;;;4965544;28;270598;-71
2023/07/27 04:44:41;;;;;;;17.67;9.27;;;13.60;99.90;;;;;;4993407;28;20042;-71
2023/07/27 04:47:07;;;;;;;15.50;8.70;;;13.60;99.90;;;;;;4972148;28;267971;-71
2023/07/27 04:49:33;;;;;;;17.30;9.05;;;13.60;99.90;;;;;;4982659;28;20054;-70
2023/07/27 04:51:59;;;;;;;16.98;9.00;;;13.60;99.90;;;;;;4952203;28;263505;-71
2023/07/27 04:54:25;;;;;;;16.27;8.90;;;13.60;99.90;;;;;;4998082;28;20051;-71
2023/07/27 04:56:51;;;;;;;17.27;8.48;;;13.60;99.90;;;;;;4968878;28;259298;-70
2023/07/27 04:59:18;;;;;;;18.55;9.40;;;13.60;99.90;;;;;;4999188;28;20053;-71
2023/07/27 05:01:44;;;;;;;16.52;9.07;;;13.60;99.90;;;;;;4985288;28;20403;-70
2023/07/27 05:04:10;;;;;;;18.17;9.13;;;13.60;99.90;;;;;;4968494;28;136506;-71
2023/07/27 05:06:38;;;;;;;17.55;9.55;;;13.60;99.90;;;;;;4977278;28;20069;-71
2023/07/27 05:09:04;;;;;;;16.45;9.02;;;13.60;99.90;;;;;;4972157;28;20361;-70
2023/07/27 05:11:30;;;;;;;15.93;8.90;;;13.70;99.90;;;;;;4984069;28;20439;-71
2023/07/27 05:13:56;;;;;;;15.77;9.02;;;13.70;99.90;;;;;;4970631;28;157211;-71
2023/07/27 05:16:22;;;;;;;15.38;8.57;;;13.70;99.90;;;;;;4975881;28;20480;-70
2023/07/27 05:18:48;;;;;;;15.18;8.50;;;13.80;99.90;;;;;;4975225;28;281458;-70
2023/07/27 05:21:14;;;;;;;18.00;9.25;;;13.80;99.90;;;;;;4980095;28;20062;-70
2023/07/27 05:23:41;;;;;;;14.95;8.43;;;13.80;99.90;;;;;;4954164;28;182545;-71
2023/07/27 05:26:07;;;;;;;17.30;9.95;;;13.90;99.90;;;;;;4981783;28;20057;-71
2023/07/27 05:28:33;;;;;;;16.52;9.18;;;13.90;99.90;;;;;;4975409;28;272238;-71
2023/07/27 05:30:59;;;;;;;14.43;8.77;;;13.80;99.90;;;;;;4984283;28;20491;-71
2023/07/27 05:33:25;;;;;;;15.43;8.38;;;13.90;99.90;;;;;;4955721;28;163978;-70
2023/07/27 05:35:51;;;;;;;15.43;8.68;;;13.90;99.90;;;;;;4984665;28;20763;-71
2023/07/27 05:38:18;;;;;;;16.63;9.10;;;14.00;99.90;;;;;;4967939;28;254928;-70
2023/07/27 05:40:44;;;;;;;17.48;8.80;;;14.00;99.90;;;;;;4980972;28;20054;-71
2023/07/27 05:43:10;;;;;;;15.02;8.63;;;14.00;99.90;;;;;;4965267;28;139987;-71
2023/07/27 05:45:39;;;;;;;15.00;8.75;;;14.10;99.90;;;;;;4983226;28;20053;-71
2023/07/27 05:48:06;;;;;;;15.10;8.70;;;14.10;99.90;;;;;;4971257;28;32751;-71
2023/07/27 05:50:34;;;;;;;14.48;8.13;;;14.10;99.90;;;;;;4986563;28;20054;-72
2023/07/27 05:53:00;;;;;;;14.68;7.97;;;14.20;99.90;;;;;;4956261;28;115608;-72
2023/07/27 05:55:26;;;;;;;14.27;7.50;;;14.20;99.90;;;;;;4987673;28;20053;-72
2023/07/27 05:57:52;;;;;;;13.38;7.25;;;14.20;99.90;;;;;;4969305;28;84705;-72
2023/07/27 06:00:18;;;;;;;14.48;7.43;;;14.30;99.90;;;;;;4978353;28;20065;-72
2023/07/27 06:02:44;;;;;;;13.93;7.25;;;14.30;99.90;;;;;;4968736;28;173044;-72
2023/07/27 06:05:11;;;;;;;12.25;7.22;;;14.40;99.90;;;;;;4979499;28;20061;-71
2023/07/27 06:07:37;;;;;;;12.52;6.50;;;14.40;99.90;;;;;;4949422;28;136004;-71
2023/07/27 06:10:03;;;;;;;12.63;6.80;;;14.50;99.90;;;;;;4963553;28;20061;-71
2023/07/27 06:12:29;;;;;;;12.75;6.95;;;14.50;99.90;;;;;;4974640;28;54658;-72
2023/07/27 06:14:55;;;;;;;13.13;6.90;;;14.60;99.90;;;;;;4982415;28;20058;-71
2023/07/27 06:17:22;;;;;;;13.95;6.80;;;14.60;99.90;;;;;;4966046;28;278781;-71
2023/07/27 06:19:48;;;;;;;12.30;6.47;;;14.70;99.90;;;;;;4989728;28;20109;-70
2023/07/27 06:22:15;;;;;;;11.93;6.25;;;14.80;99.90;;;;;;4964911;28;261255;-71
2023/07/27 06:24:41;;;;;;;12.32;6.13;;;14.80;99.90;;;;;;4981547;28;20064;-71
2023/07/27 06:27:07;;;;;;;13.82;6.40;;;14.80;99.90;;;;;;4948975;28;257369;-71
2023/07/27 06:29:33;;;;;;;12.77;6.35;;;14.90;99.90;;;;;;4993366;28;20050;-71
2023/07/27 06:32:00;;;;;;;12.67;6.23;;;14.80;99.90;;;;;;4958834;28;260026;-70
2023/07/27 06:34:26;;;;;;;13.07;6.30;;;14.90;99.90;;;;;;4979484;28;20057;-71
2023/07/27 06:36:52;;;;;;;12.38;6.00;;;14.80;99.90;;;;;;4958186;28;276294;-71
2023/07/27 06:39:18;;;;;;;12.93;6.30;;;14.90;99.90;;;;;;4994155;28;20573;-71
2023/07/27 06:41:44;;;;;;;12.43;6.28;;;14.80;99.90;;;;;;4979762;28;20072;-72
2023/07/27 06:44:10;;;;;;;12.73;6.38;;;14.90;99.90;;;;;;4976766;28;262288;-72
2023/07/27 06:46:36;;;;;;;12.07;6.43;;;14.90;99.90;;;;;;4959351;28;20151;-73
2023/07/27 06:49:03;;;;;;;13.45;6.55;;;15.00;99.90;;;;;;4959341;28;215966;-72
2023/07/27 06:51:29;;;;;;;12.43;6.15;;;15.00;99.90;;;;;;4978104;28;20053;-72
2023/07/27 06:53:55;;;;;;;12.77;6.25;;;15.00;99.90;;;;;;4950104;28;174280;-72
2023/07/27 06:56:21;;;;;;;13.07;6.40;;;15.00;99.90;;;;;;4983308;28;20061;-72
2023/07/27 06:58:47;;;;;;;20.52;6.50;;;15.10;99.90;;;;;;4966112;28;106120;-71
2023/07/27 07:01:14;;;;;;;13.93;6.30;;;15.20;99.90;;;;;;4978647;28;20066;-71
2023/07/27 07:03:40;;;;;;;11.60;6.55;;;15.20;99.90;;;;;;4964691;28;213580;-70
2023/07/27 07:06:06;;;;;;;12.98;6.28;;;15.40;99.90;;;;;;4977177;28;20054;-72
2023/07/27 07:08:32;;;;;;;11.70;6.35;;;15.40;99.90;;;;;;4966293;28;104488;-73
2023/07/27 07:10:58;;;;;;;11.35;6.15;;;15.40;99.90;;;;;;4983330;28;21768;-72
2023/07/27 07:13:25;;;;;;;10.63;5.47;;;15.50;99.90;;;;;;4969081;28;165067;-72
2023/07/27 07:15:51;;;;;;;10.40;5.30;;;15.40;99.90;;;;;;4981711;28;20061;-71
2023/07/27 07:18:17;;;;;;;10.65;5.55;;;15.50;99.90;;;;;;4963826;28;209240;-72
2023/07/27 07:20:43;;;;;;;11.13;5.85;;;15.60;99.90;;;;;;4982911;28;20046;-72
2023/07/27 07:23:09;;;;;;;10.65;5.18;;;15.70;99.90;;;;;;4966088;28;150660;-72
2023/07/27 07:25:35;;;;;;;12.15;6.25;;;15.70;99.90;;;;;;4982059;28;20068;-72
2023/07/27 07:28:01;;;;;;;11.15;5.88;;;15.70;99.90;;;;;;4974672;28;279423;-72
2023/07/27 07:30:27;;;;;;;12.55;5.90;;;15.70;99.90;;;;;;4980305;28;20500;-72
2023/07/27 07:32:53;;;;;;;12.75;5.75;;;15.80;99.90;;;;;;4965623;28;228624;-72
2023/07/27 07:35:20;;;;;;;11.38;5.88;;;15.80;99.90;;;;;;4958467;28;20510;-72
2023/07/27 07:37:47;;;;;;;10.52;5.50;;;15.80;99.90;;;;;;4969319;28;168753;-72
2023/07/27 07:40:16;;;;;;;10.13;5.65;;;15.80;99.90;;;;;;4981255;28;20057;-72
2023/07/27 07:42:43;;;;;;;11.00;5.68;;;15.90;99.90;;;;;;4967128;28;109514;-72
2023/07/27 07:45:09;;;;;;;11.23;5.82;;;15.90;99.90;;;;;;4978180;28;20058;-72
2023/07/27 07:47:35;;;;;;;9.73;5.63;;;16.00;99.90;;;;;;4983023;28;56686;-72
2023/07/27 07:50:02;;;;;;;9.80;5.05;;;16.10;99.90;;;;;;4989286;28;20470;-72
2023/07/27 07:52:28;;;;;;;9.50;4.80;;;16.20;99.90;;;;;;4950720;28;164999;-71
2023/07/27 07:54:54;;;;;;;10.45;4.93;;;16.20;99.90;;;;;;4978556;28;20042;-71
2023/07/27 07:57:20;;;;;;;9.00;4.63;;;16.20;99.90;;;;;;4965509;28;201348;-71
2023/07/27 07:59:46;;;;;;;9.85;5.05;;;16.30;99.90;;;;;;4973558;28;20065;-72
2023/07/27 08:02:12;;;;;;;9.30;4.60;;;16.30;99.90;;;;;;4961040;28;258801;-72
2023/07/27 08:04:38;;;;;;;9.80;4.70;;;16.30;99.90;;;;;;4979241;28;20085;-72
2023/07/27 08:07:05;;;;;;;9.95;4.97;;;16.30;99.90;;;;;;4960732;28;273450;-71
2023/07/27 08:09:31;;;;;;;9.15;4.47;;;16.30;99.90;;;;;;4963557;28;20054;-72
2023/07/27 08:11:57;;;;;;;10.10;4.87;;;16.30;99.90;;;;;;4961760;28;270007;-72
2023/07/27 08:14:23;;;;;;;8.65;3.97;;;16.30;99.90;;;;;;4965398;28;20050;-72
2023/07/27 08:16:49;;;;;;;10.60;4.65;;;16.30;99.90;;;;;;4968781;28;274770;-72
2023/07/27 08:19:16;;;;;;;8.90;4.53;;;16.20;99.90;;;;;;4993813;28;22169;-72
2023/07/27 08:21:42;;;;;;;10.15;4.30;;;16.40;99.90;;;;;;4982750;28;20065;-72
2023/07/27 08:24:08;;;;;;;9.25;4.45;;;16.40;99.90;;;;;;4975200;28;273811;-71
2023/07/27 08:26:34;;;;;;;8.80;4.28;;;16.50;99.90;;;;;;4977917;28;20057;-72
2023/07/27 08:29:00;;;;;;;9.07;4.40;;;16.50;99.90;;;;;;4949334;28;173813;-72
2023/07/27 08:31:27;;;;;;;9.95;4.00;;;16.50;99.90;;;;;;4982649;28;20057;-72
2023/07/27 08:33:54;;;;;;;9.05;3.60;;;16.60;99.90;;;;;;4963632;28;274896;-71
2023/07/27 08:36:20;;;;;;;8.23;3.75;;;16.60;99.90;;;;;;4977777;28;20057;-71
2023/07/27 08:38:46;;;;;;;8.30;3.70;;;16.70;99.90;;;;;;4974314;28;244650;-72
2023/07/27 08:41:12;;;;;;;7.85;3.40;;;16.70;99.90;;;;;;4978641;28;20062;-72
2023/07/27 08:43:38;;;;;;;7.88;3.53;;;16.70;99.90;;;;;;4956844;28;246925;-71
2023/07/27 08:46:05;;;;;;;8.63;3.58;;;16.70;99.90;;;;;;4980536;28;20381;-72
2023/07/27 08:48:34;;;;;;;8.68;3.55;;;16.60;99.90;;;;;;4965426;28;200904;-72
2023/07/27 08:51:00;;;;;;;9.48;3.55;;;16.70;99.90;;;;;;4983020;28;20518;-72
2023/07/27 08:53:27;;;;;;;9.23;3.17;;;16.80;99.90;;;;;;4955063;28;267499;-72
2023/07/27 08:55:53;;;;;;;8.05;3.03;;;16.80;99.90;;;;;;4980064;28;20061;-71
2023/07/27 08:58:19;;;;;;;9.13;3.33;;;16.80;99.90;;;;;;4972628;28;263939;-71
2023/07/27 09:00:45;;;;;;;7.60;3.10;;;16.80;99.90;;;;;;4981508;28;20050;-69
2023/07/27 09:03:12;;;;;;;8.27;3.28;;;16.80;99.90;;;;;;4969186;28;209501;-70
2023/07/27 09:05:57;;;;;;;8.75;2.97;;;16.90;99.90;;;;;;4989217;28;20061;-70
2023/07/27 09:08:29;;;;;;;7.15;2.80;;;17.00;99.90;;;;;;4963078;28;213728;-71
2023/07/27 09:11:05;;;;;;;7.07;2.80;;;17.00;99.90;;;;;;4978528;28;20669;-71
2023/07/27 09:13:31;;;;;;;8.07;2.95;;;17.10;99.90;;;;;;4976912;28;263163;-70
2023/07/27 09:15:57;;;;;;;7.38;2.88;;;17.20;99.90;;;;;;4980342;28;20066;-70
2023/07/27 09:18:24;;;;;;;7.47;2.70;;;17.40;99.90;;;;;;4969836;28;137236;-70
2023/07/27 09:20:50;;;;;;;8.00;2.80;;;17.40;99.90;;;;;;4979982;28;20054;-71
2023/07/27 09:23:20;;;;;;;7.45;2.35;;;17.50;99.90;;;;;;4958694;28;267011;-71
2023/07/27 09:25:56;;;;;;;6.80;2.35;;;17.60;99.90;;;;;;4983832;28;20069;-70
2023/07/27 09:28:24;;;;;;;6.63;2.30;;;17.60;99.90;;;;;;4969419;28;87168;-70
2023/07/27 09:30:50;;;;;;;6.50;2.30;;;17.60;99.90;;;;;;4977198;28;20423;-70
2023/07/27 09:33:21;;;;;;;6.30;2.13;;;17.60;99.90;;;;;;4982167;28;224422;-70
2023/07/27 09:35:49;;;;;;;7.10;2.25;;;17.60;99.90;;;;;;4981039;28;20073;-71
2023/07/27 09:38:16;;;;;;;5.80;2.10;;;17.60;99.90;;;;;;4969958;28;275718;-71
2023/07/27 09:40:42;;;;;;;6.30;2.20;;;17.50;99.90;;;;;;4984322;28;20050;-70
2023/07/27 09:43:08;;;;;;;7.05;2.20;;;17.50;99.90;;;;;;4972509;28;276253;-71
2023/07/27 09:45:37;;;;;;;6.60;2.33;;;17.50;99.90;;;;;;4968180;28;20058;-69
2023/07/27 09:48:04;;;;;;;5.85;2.08;;;17.50;99.90;;;;;;4951219;28;264672;-70
2023/07/27 09:50:34;;;;;;;6.18;2.20;;;17.50;99.90;;;;;;4979539;28;20063;-70
2023/07/27 09:53:01;;;;;;;6.90;2.28;;;17.60;99.90;;;;;;4949828;28;219877;-70
2023/07/27 09:55:29;;;;;;;6.25;2.30;;;17.60;99.90;;;;;;4982678;28;20051;-70
2023/07/27 09:57:58;;;;;;;6.53;2.33;;;17.60;99.90;;;;;;4980024;28;238604;-72
2023/07/27 10:00:25;;;;;;;7.07;2.80;;;17.50;99.90;;;;;;4979626;28;20508;-71
2023/07/27 10:02:51;;;;;;;6.80;2.47;;;17.50;99.90;;;;;;4970778;28;254882;-71
2023/07/27 10:05:18;;;;;;;6.57;2.65;;;17.50;99.90;;;;;;4982555;28;20050;-71
2023/07/27 10:07:44;;;;;;;7.32;2.83;;;17.50;99.90;;;;;;4968496;28;262888;-70
2023/07/27 10:10:33;;;;;;;7.22;2.85;;;17.50;99.90;;;;;;4988919;28;20057;-71
2023/07/27 10:13:07;;;;;;;7.05;2.90;;;17.70;99.90;;;;;;4969046;28;266345;-71
2023/07/27 10:15:40;;;;;;;7.57;2.80;;;17.70;99.90;;;;;;4979887;28;20047;-71
2023/07/27 10:18:07;;;;;;;7.45;2.90;;;17.70;99.90;;;;;;4971329;28;263993;-71
2023/07/27 10:20:34;;;;;;;7.10;2.83;;;17.70;99.90;;;;;;4985386;28;20045;-72
2023/07/27 10:23:13;;;;;;;6.55;2.38;;;17.70;99.90;;;;;;4984670;28;139894;-71
2023/07/27 10:25:54;;;;;;;6.97;2.75;;;17.70;99.90;;;;;;4978418;28;20524;-72
2023/07/27 10:28:37;;;;;;;6.80;2.70;;;17.80;99.90;;;;;;4972487;28;20048;-72
2023/07/27 10:31:20;;;;;;;7.03;2.47;;;17.70;99.90;;;;;;4981319;28;20454;-72
2023/07/27 10:34:07;;;;;;;7.03;2.90;;;17.70;99.90;;;;;;4966909;28;163216;-71
2023/07/27 10:36:57;;;;;;;6.93;2.72;;;17.50;99.90;;;;;;4975790;28;20053;-71
2023/07/27 10:39:27;;;;;;;7.03;2.95;;;17.50;99.90;;;;;;4955846;28;20049;-71
2023/07/27 10:42:00;;;;;;;7.22;3.10;;;17.60;99.90;;;;;;4960459;28;267114;-71
2023/07/27 10:44:27;;;;;;;6.90;2.92;;;17.70;99.90;;;;;;4980758;28;20054;-71
2023/07/27 10:46:59;;;;;;;7.55;2.80;;;17.80;99.90;;;;;;4961691;28;276783;-71
2023/07/27 10:49:25;;;;;;;6.95;3.00;;;17.90;99.90;;;;;;4992842;28;20054;-70
2023/07/27 10:51:52;;;;;;;7.03;2.90;;;18.00;99.90;;;;;;4963252;28;274750;-70
2023/07/27 10:54:18;;;;;;;6.78;2.75;;;18.10;99.90;;;;;;4968463;28;20047;-70
2023/07/27 10:56:45;;;;;;;6.95;2.90;;;18.00;99.90;;;;;;4980449;28;20050;-70
2023/07/27 10:59:13;;;;;;;7.78;3.15;;;18.00;99.90;;;;;;4976420;28;265978;-70
2023/07/27 11:01:40;;;;;;;7.03;2.80;;;18.10;99.90;;;;;;4979151;28;20118;-70
2023/07/27 11:04:06;;;;;;;7.60;3.13;;;18.00;99.90;;;;;;4976518;28;265144;-71
2023/07/27 11:06:41;;;;;;;7.40;3.30;;;18.00;99.90;;;;;;4982163;28;20054;-71
2023/07/27 11:09:15;;;;;;;7.38;3.25;;;18.00;99.90;;;;;;4947551;28;55110;-71
2023/07/27 11:11:42;;;;;;;7.95;3.20;;;18.00;99.90;;;;;;4984156;28;20419;-71
2023/07/27 11:14:09;;;;;;;7.15;3.35;;;18.10;99.90;;;;;;4965642;28;180750;-71
2023/07/27 11:16:39;;;;;;;7.55;3.40;;;18.10;99.90;;;;;;4977705;28;20053;-71
2023/07/27 11:19:07;;;;;;;7.30;3.47;;;18.10;99.90;;;;;;4971048;28;271637;-72
2023/07/27 11:21:38;;;;;;;7.47;3.80;;;18.10;99.90;;;;;;4979411;28;20844;-73
2023/07/27 11:24:06;;;;;;;8.05;3.40;;;18.30;99.90;;;;;;4970506;28;113566;-73
2023/07/27 11:26:33;;;;;;;7.40;3.50;;;18.40;99.90;;;;;;4980706;28;20077;-72
2023/07/27 11:29:00;;;;;;;9.20;3.50;;;18.40;99.90;;;;;;4968628;28;37260;-71
2023/07/27 11:31:26;;;;;;;7.57;3.70;;;18.30;99.90;;;;;;4974505;28;20058;-70
2023/07/27 11:33:58;;;;;;;6.90;3.25;;;18.30;99.90;;;;;;4976550;28;269510;-72
2023/07/27 11:36:27;;;;;;;6.90;3.10;;;18.30;99.90;;;;;;4969618;28;20918;-71
2023/07/27 11:38:54;;;;;;;7.30;3.60;;;18.30;99.90;;;;;;4979843;28;251960;-71
2023/07/27 11:41:20;;;;;;;7.32;3.38;;;18.40;99.90;;;;;;4965160;28;20050;-72
2023/07/27 11:43:51;;;;;;;7.05;3.33;;;18.30;99.90;;;;;;4977508;28;271164;-72
2023/07/27 11:46:19;;;;;;;7.05;3.13;;;18.30;99.90;;;;;;4985992;28;20046;-72
2023/07/27 11:48:50;;;;;;;6.80;3.22;;;18.30;99.90;;;;;;4975893;28;272717;-73
2023/07/27 11:51:17;;;;;;;7.77;3.40;;;18.40;99.90;;;;;;4982522;28;20046;-73
2023/07/27 11:53:47;;;;;;;7.45;3.33;;;18.40;99.90;;;;;;4958633;28;276654;-72
2023/07/27 11:56:13;;;;;;;7.50;3.40;;;18.40;99.90;;;;;;4977726;28;20806;-73
2023/07/27 11:58:43;;;;;;;7.10;3.35;;;18.40;99.90;;;;;;4971779;28;256580;-71
2023/07/27 12:01:10;;;;;;;8.82;3.50;;;18.50;99.90;;;;;;4982303;28;20058;-72
2023/07/27 12:03:39;;;;;;;7.57;3.55;;;18.50;99.90;;;;;;4968304;28;125959;-71
2023/07/27 12:06:06;;;;;;;7.22;3.35;;;18.50;99.90;;;;;;4978966;28;20058;-71
2023/07/27 12:08:37;;;;;;;8.13;3.55;;;18.60;99.90;;;;;;4969540;28;26435;-71
2023/07/27 12:11:03;;;;;;;7.60;3.10;;;18.70;99.90;;;;;;4981773;28;20062;-72
2023/07/27 12:13:29;;;;;;;6.88;3.28;;;18.70;99.90;;;;;;4962810;28;33217;-70
2023/07/27 12:16:00;;;;;;;7.95;3.53;;;18.70;99.90;;;;;;4963792;28;20062;-72
2023/07/27 12:18:29;;;;;;;8.05;3.70;;;18.70;99.90;;;;;;4973023;28;259769;-72
2023/07/27 12:20:56;;;;;;;7.60;3.47;;;18.70;99.90;;;;;;4980253;28;20055;-73
2023/07/27 12:23:24;;;;;;;9.00;3.67;;;18.70;99.90;;;;;;4973424;28;259406;-72
2023/07/27 12:25:52;;;;;;;8.18;3.78;;;18.70;99.90;;;;;;4975554;28;20050;-72
2023/07/27 12:28:19;;;;;;;6.82;3.13;;;18.80;99.90;;;;;;4965375;28;118594;-71
2023/07/27 12:30:45;;;;;;;7.22;3.20;;;18.80;99.90;;;;;;4979056;28;20050;-72
2023/07/27 12:33:12;;;;;;;8.45;3.40;;;18.80;99.90;;;;;;4970159;28;263375;-71
2023/07/27 12:35:39;;;;;;;6.80;3.10;;;18.80;99.90;;;;;;4981869;28;20042;-71
2023/07/27 12:38:06;;;;;;;7.85;3.58;;;18.70;99.90;;;;;;4969895;28;40711;-73